Time;durP1;ratioP1;P1;durP2;ratioP2;P2;SDS_P1;SDS_P2;PMS_P1;PMS_P2;Temp;Humidity;BMP_temperature;BMP_pressure;BME280_temperature;BME280_humidity;BME280_pressure;Samples;Min_cycle;Max_cycle;Signal;HPM_P1;HPM_P2
2022/01/16 00:06:28;;;;;;;9.60;5.82;;;;;;;;;;5072593;28;20047;-71
2022/01/16 00:08:56;;;;;;;12.88;5.90;;;;;;;;;;5072750;28;20041;-71
2022/01/16 00:11:24;;;;;;;8.68;5.47;;;;;;;;;;5072538;28;20041;-71
2022/01/16 00:13:52;;;;;;;8.50;4.97;;;;;;;;;;5054717;28;20076;-73
2022/01/16 00:16:19;;;;;;;10.38;5.60;;;;;;;;;;5072560;28;20123;-73
2022/01/16 00:18:52;;;;;;;12.68;5.47;;;;;;;;;;5072144;28;20457;-73
2022/01/16 00:21:24;;;;;;;8.15;5.15;;;;;;;;;;5072627;28;20055;-73
2022/01/16 00:23:52;;;;;;;9.77;5.43;;;;;;;;;;5054922;28;20082;-71
2022/01/16 00:26:23;;;;;;;9.70;5.30;;;;;;;;;;5072664;28;20036;-74
2022/01/16 00:28:51;;;;;;;7.57;5.03;;;;;;;;;;5072445;28;20048;-74
2022/01/16 00:31:20;;;;;;;8.38;5.25;;;;;;;;;;5072040;28;20398;-73
2022/01/16 00:33:47;;;;;;;16.55;5.50;;;;;;;;;;5054426;28;20048;-71
2022/01/16 00:36:17;;;;;;;8.23;4.70;;;;;;;;;;5054579;28;20072;-73
2022/01/16 00:38:45;;;;;;;9.20;5.25;;;;;;;;;;5072318;28;20040;-73
2022/01/16 00:41:14;;;;;;;9.00;5.07;;;;;;;;;;5054869;28;20046;-73
2022/01/16 00:43:41;;;;;;;7.97;4.68;;;;;;;;;;5072172;28;20476;-73
2022/01/16 00:46:09;;;;;;;7.85;4.57;;;;;;;;;;5072472;28;20106;-73
2022/01/16 00:48:37;;;;;;;7.80;5.05;;;;;;;;;;5072542;28;20048;-71
2022/01/16 00:51:05;;;;;;;8.88;4.85;;;;;;;;;;5072245;28;20037;-74
2022/01/16 00:53:32;;;;;;;10.88;5.00;;;;;;;;;;5072170;28;20055;-73
2022/01/16 00:55:59;;;;;;;8.52;5.32;;;;;;;;;;5071965;28;20045;-73
2022/01/16 00:58:27;;;;;;;9.20;4.95;;;;;;;;;;5054110;28;20422;-73
2022/01/16 01:00:54;;;;;;;8.05;5.00;;;;;;;;;;5071945;28;20071;-73
2022/01/16 01:03:22;;;;;;;11.18;5.25;;;;;;;;;;5071925;28;20045;-72
2022/01/16 01:05:50;;;;;;;8.82;5.30;;;;;;;;;;5073718;28;20047;-73
2022/01/16 01:08:18;;;;;;;8.48;4.95;;;;;;;;;;5057218;28;20052;-71
2022/01/16 01:10:49;;;;;;;9.85;4.70;;;;;;;;;;5075473;28;20037;-71
2022/01/16 01:13:30;;;;;;;8.93;5.00;;;;;;;;;;5075341;28;20040;-73
2022/01/16 01:16:03;;;;;;;9.35;4.88;;;;;;;;;;5057257;28;20516;-72
2022/01/16 01:18:31;;;;;;;6.97;4.70;;;;;;;;;;5074868;28;20053;-71
2022/01/16 01:21:02;;;;;;;8.57;4.65;;;;;;;;;;5075311;28;20041;-72
2022/01/16 01:23:29;;;;;;;8.35;4.70;;;;;;;;;;5057321;28;20045;-71
2022/01/16 01:25:57;;;;;;;8.45;5.18;;;;;;;;;;5075657;28;20067;-73
2022/01/16 01:28:24;;;;;;;7.90;4.38;;;;;;;;;;5075248;28;20389;-73
2022/01/16 01:30:52;;;;;;;10.10;4.63;;;;;;;;;;5057068;28;20111;-73
2022/01/16 01:33:21;;;;;;;7.82;4.20;;;;;;;;;;5075428;28;20052;-73
2022/01/16 01:35:48;;;;;;;6.35;3.85;;;;;;;;;;5057192;28;20048;-73
2022/01/16 01:38:18;;;;;;;8.18;4.00;;;;;;;;;;5075236;28;20484;-71
2022/01/16 01:40:48;;;;;;;8.23;4.18;;;;;;;;;;5075290;28;20044;-73
2022/01/16 01:51:21;;;;;;;8.00;3.70;;;;;;;;;;5074555;28;20115;-73
2022/01/16 01:53:54;;;;;;;7.85;4.03;;;;;;;;;;5075959;28;20067;-73
2022/01/16 01:56:22;;;;;;;10.13;4.43;;;;;;;;;;5074455;28;20051;-73
2022/01/16 01:58:50;;;;;;;7.53;3.90;;;;;;;;;;5075014;28;20385;-71
2022/01/16 02:01:18;;;;;;;6.68;4.15;;;;;;;;;;5074826;28;20059;-72
2022/01/16 02:03:48;;;;;;;7.47;4.38;;;;;;;;;;5074853;28;20040;-73
2022/01/16 02:06:23;;;;;;;7.03;4.72;;;;;;;;;;5074912;28;20037;-73
2022/01/16 02:08:52;;;;;;;6.05;4.57;;;;;;;;;;5074073;28;20402;-73
2022/01/16 02:11:24;;;;;;;6.47;4.40;;;;;;;;;;5074456;28;20064;-73
2022/01/16 02:14:02;;;;;;;7.80;4.90;;;;;;;;;;5056380;28;20048;-73
2022/01/16 02:28:08;;;;;;;7.00;4.90;;;;;;;;;;5012315;28;20420;-73
2022/01/16 02:35:52;;;;;;;8.57;5.13;;;;;;;;;;5012313;28;20049;-73
2022/01/16 02:38:21;;;;;;;9.18;4.60;;;;;;;;;;5012325;28;20054;-73
2022/01/16 02:40:54;;;;;;;7.68;4.97;;;;;;;;;;5012247;28;20053;-73
2022/01/16 02:43:30;;;;;;;6.75;4.18;;;;;;;;;;5011982;28;20060;-71
2022/01/16 02:46:44;;;;;;;5.93;3.95;;;;;;;;;;5012419;28;20062;-72
2022/01/16 02:48:54;;;;;;;7.80;4.72;;;;;;;;;;5008596;28;20093;-72
2022/01/16 02:51:22;;;;;;;9.10;4.60;;;;;;;;;;4995684;28;20085;-73
2022/01/16 02:53:50;;;;;;;7.68;4.25;;;;;;;;;;5058767;28;20052;-73
2022/01/16 02:56:18;;;;;;;4.53;3.67;;;;;;;;;;5073397;28;20052;-73
2022/01/16 02:58:46;;;;;;;4.28;3.20;;;;;;;;;;5073682;28;20047;-73
2022/01/16 03:01:14;;;;;;;7.65;3.30;;;;;;;;;;5073627;28;20119;-73
2022/01/16 03:03:41;;;;;;;5.30;3.67;;;;;;;;;;5073689;28;20416;-73
2022/01/16 03:06:09;;;;;;;6.95;3.40;;;;;;;;;;5073545;28;20051;-73
2022/01/16 03:08:37;;;;;;;5.60;3.33;;;;;;;;;;5072915;28;20047;-73
2022/01/16 03:11:20;;;;;;;7.13;3.83;;;;;;;;;;5073237;28;20040;-73
2022/01/16 03:13:49;;;;;;;6.63;3.42;;;;;;;;;;5073353;28;20077;-74
2022/01/16 03:16:18;;;;;;;5.20;3.17;;;;;;;;;;5073239;28;20040;-71
2022/01/16 03:24:19;;;;;;;8.65;2.95;;;;;;;;;;5073099;28;20047;-73
2022/01/16 03:26:46;;;;;;;5.22;2.97;;;;;;;;;;5073555;28;20036;-71
2022/01/16 03:29:14;;;;;;;3.90;2.70;;;;;;;;;;5072672;28;20040;-72
2022/01/16 03:31:41;;;;;;;4.75;2.88;;;;;;;;;;5072883;28;20036;-71
2022/01/16 03:34:09;;;;;;;3.53;2.67;;;;;;;;;;5073076;28;20044;-72
2022/01/16 03:36:36;;;;;;;3.63;2.50;;;;;;;;;;5073118;28;20040;-73
2022/01/16 03:39:04;;;;;;;2.83;2.50;;;;;;;;;;5038165;28;20044;-74
2022/01/16 03:41:34;;;;;;;2.67;2.42;;;;;;;;;;5073246;28;20052;-73
2022/01/16 03:44:02;;;;;;;2.85;2.05;;;;;;;;;;5073408;28;20036;-74
2022/01/16 03:46:34;;;;;;;2.75;2.15;;;;;;;;;;5038584;28;20047;-73
2022/01/16 03:49:07;;;;;;;3.35;2.40;;;;;;;;;;5072929;28;20090;-73
2022/01/16 03:51:35;;;;;;;3.55;2.40;;;;;;;;;;5072967;28;20120;-73
2022/01/16 03:54:03;;;;;;;3.08;2.20;;;;;;;;;;5072659;28;20045;-72
2022/01/16 03:56:31;;;;;;;3.28;2.25;;;;;;;;;;5072686;28;20040;-73
2022/01/16 03:58:59;;;;;;;5.68;2.47;;;;;;;;;;5072808;28;20044;-71
2022/01/16 04:01:27;;;;;;;3.95;2.33;;;;;;;;;;5076369;28;20483;-73
2022/01/16 04:03:55;;;;;;;6.35;2.50;;;;;;;;;;5067359;28;20066;-72
2022/01/16 04:06:23;;;;;;;2.75;2.22;;;;;;;;;;5073008;28;20037;-73
2022/01/16 04:08:53;;;;;;;3.53;2.38;;;;;;;;;;5072385;28;20043;-71
2022/01/16 04:11:21;;;;;;;3.65;2.33;;;;;;;;;;5072564;28;20040;-71
2022/01/16 04:13:51;;;;;;;4.63;2.30;;;;;;;;;;5072693;28;20051;-72
2022/01/16 04:16:20;;;;;;;3.33;2.25;;;;;;;;;;5072260;28;20127;-73
2022/01/16 04:18:50;;;;;;;7.32;2.20;;;;;;;;;;5072341;28;20044;-73
2022/01/16 04:21:19;;;;;;;4.13;2.40;;;;;;;;;;5072849;28;20048;-73
2022/01/16 04:23:47;;;;;;;4.35;2.05;;;;;;;;;;5072455;28;20041;-73
2022/01/16 04:26:15;;;;;;;6.07;2.65;;;;;;;;;;5055095;28;20036;-73
2022/01/16 04:28:43;;;;;;;4.53;2.30;;;;;;;;;;5072402;28;20059;-73
2022/01/16 04:31:10;;;;;;;4.95;2.80;;;;;;;;;;5072076;28;20464;-73
2022/01/16 04:33:38;;;;;;;5.72;3.05;;;;;;;;;;5072577;28;20048;-73
2022/01/16 04:36:07;;;;;;;3.50;2.67;;;;;;;;;;5072585;28;20123;-73
2022/01/16 04:38:36;;;;;;;4.72;2.90;;;;;;;;;;5072406;28;20071;-73
2022/01/16 04:43:52;;;;;;;6.63;3.05;;;;;;;;;;5075916;28;20047;-72
2022/01/16 04:46:21;;;;;;;6.00;2.90;;;;;;;;;;5076229;28;20048;-71
2022/01/16 04:48:50;;;;;;;5.28;2.60;;;;;;;;;;5075976;28;20411;-72
2022/01/16 04:51:18;;;;;;;3.22;2.47;;;;;;;;;;5057943;28;20051;-71
2022/01/16 04:53:45;;;;;;;2.97;2.70;;;;;;;;;;5075815;28;20380;-73
2022/01/16 04:56:13;;;;;;;4.63;2.78;;;;;;;;;;5075660;28;20480;-71
2022/01/16 04:58:42;;;;;;;5.85;2.90;;;;;;;;;;5058064;28;20051;-73
2022/01/16 05:01:10;;;;;;;5.28;2.95;;;;;;;;;;5057960;28;20392;-73
2022/01/16 05:03:40;;;;;;;5.22;2.80;;;;;;;;;;5058592;28;20040;-71
2022/01/16 05:06:07;;;;;;;5.30;2.75;;;;;;;;;;5058383;28;20078;-71
2022/01/16 05:08:35;;;;;;;3.65;2.80;;;;;;;;;;5075403;28;20045;-71
2022/01/16 05:11:05;;;;;;;6.15;3.00;;;;;;;;;;5075750;28;20040;-72
2022/01/16 05:18:50;;;;;;;5.22;3.22;;;;;;;;;;5075360;28;20052;-72
2022/01/16 05:21:20;;;;;;;6.68;3.53;;;;;;;;;;5075645;28;20049;-72
2022/01/16 05:23:48;;;;;;;6.82;3.45;;;;;;;;;;5075225;28;20087;-73
2022/01/16 05:26:18;;;;;;;4.80;3.15;;;;;;;;;;5075739;28;20492;-73
2022/01/16 05:28:46;;;;;;;4.90;3.30;;;;;;;;;;5075169;28;20476;-73
2022/01/16 05:31:13;;;;;;;5.53;3.25;;;;;;;;;;5074971;28;20048;-74
2022/01/16 05:33:41;;;;;;;4.72;3.13;;;;;;;;;;5075345;28;20048;-73
2022/01/16 05:36:08;;;;;;;4.75;2.92;;;;;;;;;;5075425;28;20041;-73
2022/01/16 05:38:36;;;;;;;3.38;2.50;;;;;;;;;;5075341;28;20068;-73
2022/01/16 05:41:03;;;;;;;4.95;2.80;;;;;;;;;;5075419;28;20045;-72
2022/01/16 05:43:31;;;;;;;3.60;2.80;;;;;;;;;;5056984;28;20044;-73
2022/01/16 05:46:00;;;;;;;4.43;2.80;;;;;;;;;;5057711;28;20044;-72
2022/01/16 05:48:27;;;;;;;5.70;3.30;;;;;;;;;;5075363;28;20090;-71
2022/01/16 05:50:55;;;;;;;3.25;2.78;;;;;;;;;;5074911;28;20483;-73
2022/01/16 05:53:23;;;;;;;5.18;3.10;;;;;;;;;;5057289;28;20045;-72
2022/01/16 05:55:50;;;;;;;4.78;2.97;;;;;;;;;;5074618;28;20072;-73
2022/01/16 05:58:18;;;;;;;6.07;2.80;;;;;;;;;;5075065;28;20041;-72
2022/01/16 06:00:47;;;;;;;4.30;2.72;;;;;;;;;;5057003;28;20045;-73
2022/01/16 06:03:15;;;;;;;6.65;2.72;;;;;;;;;;5075128;28;20048;-73
2022/01/16 06:05:42;;;;;;;3.90;2.70;;;;;;;;;;5056506;28;20037;-74
2022/01/16 06:08:12;;;;;;;5.40;2.80;;;;;;;;;;5074209;28;20040;-74
2022/01/16 06:10:40;;;;;;;5.05;2.33;;;;;;;;;;5056579;28;20488;-71
2022/01/16 06:13:08;;;;;;;3.90;2.67;;;;;;;;;;5056789;28;20046;-72
2022/01/16 06:15:37;;;;;;;3.83;2.28;;;;;;;;;;5074453;28;20044;-74
2022/01/16 06:18:07;;;;;;;3.35;2.20;;;;;;;;;;5074322;28;20048;-73
2022/01/16 06:20:34;;;;;;;4.30;2.53;;;;;;;;;;5074127;28;20041;-71
2022/01/16 06:23:02;;;;;;;5.25;2.72;;;;;;;;;;5074784;28;20047;-72
2022/01/16 06:25:29;;;;;;;4.72;2.65;;;;;;;;;;5073986;28;20484;-74
2022/01/16 06:27:57;;;;;;;2.92;2.45;;;;;;;;;;5074320;28;20115;-73
2022/01/16 06:30:25;;;;;;;4.38;2.60;;;;;;;;;;5073945;28;20067;-72
2022/01/16 06:32:52;;;;;;;5.43;2.20;;;;;;;;;;5073880;28;20044;-72
2022/01/16 06:35:20;;;;;;;3.55;2.42;;;;;;;;;;5073775;28;20036;-72
2022/01/16 06:37:48;;;;;;;3.55;2.30;;;;;;;;;;5074349;28;20071;-74
2022/01/16 06:40:16;;;;;;;3.10;2.10;;;;;;;;;;5074195;28;20372;-74
2022/01/16 06:42:43;;;;;;;2.63;2.40;;;;;;;;;;5055887;28;20055;-72
2022/01/16 06:45:11;;;;;;;3.10;2.28;;;;;;;;;;5073844;28;20044;-70
2022/01/16 06:47:40;;;;;;;5.38;2.80;;;;;;;;;;5073891;28;20055;-70
2022/01/16 06:50:08;;;;;;;4.25;2.60;;;;;;;;;;5077553;28;20044;-71
2022/01/16 06:52:35;;;;;;;2.88;2.38;;;;;;;;;;5089831;28;20118;-71
2022/01/16 06:55:03;;;;;;;2.75;2.30;;;;;;;;;;5093324;28;20170;-70
2022/01/16 06:57:32;;;;;;;3.90;2.35;;;;;;;;;;5094087;28;20127;-70
2022/01/16 07:00:00;;;;;;;3.75;2.50;;;;;;;;;;5094283;28;20051;-70
2022/01/16 07:02:28;;;;;;;2.60;2.40;;;;;;;;;;5094065;28;20407;-70
2022/01/16 07:04:59;;;;;;;4.38;2.60;;;;;;;;;;5093973;28;20036;-70
2022/01/16 07:07:27;;;;;;;2.92;2.40;;;;;;;;;;5093457;28;20043;-70
2022/01/16 07:09:55;;;;;;;3.33;2.50;;;;;;;;;;5093374;28;20045;-70
2022/01/16 07:12:23;;;;;;;3.75;2.40;;;;;;;;;;5092984;28;20047;-70
2022/01/16 07:14:52;;;;;;;2.72;2.38;;;;;;;;;;5093619;28;20040;-70
2022/01/16 07:17:19;;;;;;;3.25;2.35;;;;;;;;;;5093420;28;20036;-72
2022/01/16 07:19:47;;;;;;;3.35;2.60;;;;;;;;;;5093007;28;20043;-71
2022/01/16 07:22:14;;;;;;;4.63;2.65;;;;;;;;;;5093959;28;20040;-71
2022/01/16 07:24:41;;;;;;;4.35;2.25;;;;;;;;;;5093484;28;20042;-72
2022/01/16 07:27:09;;;;;;;3.80;2.40;;;;;;;;;;5093315;28;20047;-71
2022/01/16 07:29:37;;;;;;;3.45;2.70;;;;;;;;;;5092477;28;20415;-71
2022/01/16 07:32:07;;;;;;;3.90;2.80;;;;;;;;;;5093169;28;20541;-71
2022/01/16 07:34:36;;;;;;;5.20;2.58;;;;;;;;;;5093315;28;20036;-72
2022/01/16 07:37:04;;;;;;;5.03;2.90;;;;;;;;;;5093191;28;20040;-71
2022/01/16 07:39:31;;;;;;;7.13;2.95;;;;;;;;;;5093148;28;20044;-71
2022/01/16 07:41:58;;;;;;;4.90;3.10;;;;;;;;;;5093553;28;20044;-71
2022/01/16 07:44:28;;;;;;;4.32;3.00;;;;;;;;;;5074185;28;20040;-72
2022/01/16 07:46:56;;;;;;;4.30;3.10;;;;;;;;;;5075104;28;20040;-71
2022/01/16 07:49:24;;;;;;;3.63;3.05;;;;;;;;;;5093111;28;20491;-72
2022/01/16 07:51:51;;;;;;;4.47;3.22;;;;;;;;;;5093434;28;20102;-73
2022/01/16 07:54:20;;;;;;;5.68;3.33;;;;;;;;;;5093512;28;20044;-71
2022/01/16 07:56:48;;;;;;;4.75;3.50;;;;;;;;;;5075038;28;20052;-72
2022/01/16 07:59:17;;;;;;;8.32;3.65;;;;;;;;;;5093069;28;20128;-71
2022/01/16 08:01:45;;;;;;;7.43;4.85;;;;;;;;;;5075064;28;20044;-73
2022/01/16 08:04:13;;;;;;;7.38;4.50;;;;;;;;;;5092965;28;20040;-72
2022/01/16 08:06:40;;;;;;;5.10;3.83;;;;;;;;;;5092583;28;20040;-71
2022/01/16 08:09:09;;;;;;;4.10;3.55;;;;;;;;;;5092194;28;20032;-72
2022/01/16 08:11:36;;;;;;;4.57;3.60;;;;;;;;;;5092463;28;20036;-73
2022/01/16 08:14:03;;;;;;;6.22;4.22;;;;;;;;;;5092444;28;20060;-72
2022/01/16 08:16:31;;;;;;;6.72;4.50;;;;;;;;;;5093168;28;20122;-71
2022/01/16 08:18:58;;;;;;;7.78;4.60;;;;;;;;;;5095405;28;20438;-71
2022/01/16 08:21:26;;;;;;;8.48;4.82;;;;;;;;;;5094611;28;20094;-72
2022/01/16 08:23:53;;;;;;;5.22;4.30;;;;;;;;;;5094735;28;20115;-71
2022/01/16 08:26:21;;;;;;;5.50;4.20;;;;;;;;;;5095038;28;20040;-72
2022/01/16 08:28:48;;;;;;;5.47;4.22;;;;;;;;;;5095442;28;20044;-72
2022/01/16 08:31:16;;;;;;;5.65;4.03;;;;;;;;;;5095376;28;20483;-70
2022/01/16 08:33:44;;;;;;;10.13;4.40;;;;;;;;;;5095687;28;20044;-72
2022/01/16 08:36:11;;;;;;;6.68;4.57;;;;;;;;;;5095391;28;20040;-72
2022/01/16 08:38:38;;;;;;;7.40;4.68;;;;;;;;;;5095696;28;20044;-72
2022/01/16 08:41:07;;;;;;;9.45;5.18;;;;;;;;;;5071034;28;20441;-72
2022/01/16 08:43:34;;;;;;;9.05;5.40;;;;;;;;;;5090207;28;20044;-72
2022/01/16 08:46:02;;;;;;;9.20;5.13;;;;;;;;;;5075245;28;20392;-71
2022/01/16 08:48:30;;;;;;;11.40;7.50;;;;;;;;;;5087903;28;20036;-72
2022/01/16 08:50:57;;;;;;;10.80;6.97;;;;;;;;;;5083694;28;20036;-73
2022/01/16 08:53:25;;;;;;;15.10;8.80;;;;;;;;;;5063991;28;20407;-71
2022/01/16 08:55:53;;;;;;;17.05;7.22;;;;;;;;;;5087087;28;20043;-72
2022/01/16 08:58:20;;;;;;;13.52;6.65;;;;;;;;;;5077846;28;20056;-72
2022/01/16 09:00:50;;;;;;;10.80;6.53;;;;;;;;;;5089284;28;20047;-70
2022/01/16 09:03:19;;;;;;;10.07;6.38;;;;;;;;;;5094651;28;20487;-73
2022/01/16 09:05:47;;;;;;;6.82;4.57;;;;;;;;;;5094666;28;20040;-72
2022/01/16 09:08:14;;;;;;;8.27;5.47;;;;;;;;;;5094745;28;20495;-72
2022/01/16 09:10:42;;;;;;;6.88;4.43;;;;;;;;;;5094748;28;20067;-77
2022/01/16 09:13:12;;;;;;;7.40;4.45;;;;;;;;;;5094893;28;20032;-70
2022/01/16 09:15:40;;;;;;;7.43;4.28;;;;;;;;;;5088924;28;20055;-72
2022/01/16 09:18:07;;;;;;;6.63;4.40;;;;;;;;;;5037182;28;1222859;-72
2022/01/16 09:20:35;;;;;;;5.50;3.95;;;;;;;;;;5075829;28;20040;-73
2022/01/16 09:23:02;;;;;;;9.13;5.53;;;;;;;;;;5084989;28;20036;-72
2022/01/16 09:25:30;;;;;;;11.15;7.55;;;;;;;;;;5094313;28;20549;-71
2022/01/16 09:27:57;;;;;;;12.95;7.78;;;;;;;;;;5094492;28;20081;-71
2022/01/16 09:30:28;;;;;;;13.88;7.93;;;;;;;;;;5092568;28;20028;-72
2022/01/16 09:32:55;;;;;;;13.23;9.30;;;;;;;;;;5076337;28;20395;-70
2022/01/16 09:35:23;;;;;;;19.45;12.20;;;;;;;;;;5076824;28;20040;-70
2022/01/16 09:37:52;;;;;;;16.85;10.52;;;;;;;;;;5095373;28;20040;-70
2022/01/16 09:40:21;;;;;;;16.10;10.05;;;;;;;;;;5094997;28;20044;-70
2022/01/16 09:42:49;;;;;;;15.50;10.57;;;;;;;;;;5094636;28;20411;-71
2022/01/16 09:45:18;;;;;;;16.42;9.60;;;;;;;;;;5077105;28;20040;-70
2022/01/16 09:47:47;;;;;;;13.50;8.88;;;;;;;;;;5094533;28;20060;-70
2022/01/16 09:50:20;;;;;;;16.52;9.13;;;;;;;;;;5095201;28;20036;-72
2022/01/16 09:52:48;;;;;;;12.57;8.80;;;;;;;;;;5095052;28;20526;-68
2022/01/16 09:55:16;;;;;;;14.73;9.45;;;;;;;;;;5094375;28;20044;-70
2022/01/16 09:57:44;;;;;;;14.15;9.90;;;;;;;;;;5094510;28;20546;-70
2022/01/16 10:00:13;;;;;;;14.80;9.20;;;;;;;;;;5095209;28;20040;-69
2022/01/16 10:02:44;;;;;;;13.30;8.85;;;;;;;;;;5095341;28;20123;-70
2022/01/16 10:05:23;;;;;;;13.55;8.32;;;;;;;;;;5094225;28;20406;-70
2022/01/16 10:07:54;;;;;;;10.93;7.47;;;;;;;;;;5094337;28;20085;-70
2022/01/16 10:10:24;;;;;;;9.95;7.57;;;;;;;;;;5094742;28;20071;-70
2022/01/16 10:12:54;;;;;;;11.95;7.35;;;;;;;;;;5094791;28;20048;-69
2022/01/16 10:15:24;;;;;;;9.52;6.80;;;;;;;;;;5094587;28;20135;-70
2022/01/16 10:17:53;;;;;;;10.38;6.50;;;;;;;;;;5087636;23;20075;-69
2022/01/16 10:20:20;;;;;;;9.40;6.43;;;;;;;;;;5080307;28;20087;-69
2022/01/16 10:22:55;;;;;;;11.50;7.25;;;;;;;;;;5094176;28;20036;-69
2022/01/16 10:25:44;;;;;;;10.75;6.32;;;;;;;;;;5076098;28;20054;-70
2022/01/16 10:28:13;;;;;;;8.20;5.55;;;;;;;;;;5076091;28;20139;-70
2022/01/16 10:30:41;;;;;;;7.05;5.30;;;;;;;;;;5094324;28;20036;-69
2022/01/16 10:33:12;;;;;;;9.93;5.40;;;;;;;;;;5093200;28;20032;-69
2022/01/16 10:35:41;;;;;;;8.32;5.65;;;;;;;;;;5093764;28;20050;-69
2022/01/16 10:38:10;;;;;;;8.73;4.65;;;;;;;;;;5093423;28;20077;-70
2022/01/16 10:40:40;;;;;;;8.68;5.13;;;;;;;;;;5088239;28;20051;-70
2022/01/16 10:43:15;;;;;;;7.00;4.78;;;;;;;;;;5080013;28;20055;-70
2022/01/16 10:45:44;;;;;;;5.03;4.43;;;;;;;;;;5089328;28;20035;-69
2022/01/16 10:48:13;;;;;;;6.28;3.72;;;;;;;;;;5079135;28;20048;-70
2022/01/16 10:50:43;;;;;;;5.95;3.97;;;;;;;;;;5093620;28;20040;-73
2022/01/16 10:53:19;;;;;;;8.13;4.32;;;;;;;;;;5092608;28;20070;-71
2022/01/16 10:55:51;;;;;;;4.93;3.75;;;;;;;;;;5092803;28;20044;-70
2022/01/16 10:58:19;;;;;;;5.45;3.90;;;;;;;;;;5093485;28;20075;-70
2022/01/16 11:01:02;;;;;;;5.85;4.10;;;;;;;;;;5093464;28;20036;-69
2022/01/16 11:03:50;;;;;;;5.40;3.85;;;;;;;;;;5075932;28;20047;-70
2022/01/16 11:06:21;;;;;;;6.78;4.30;;;;;;;;;;5093594;28;20066;-71
2022/01/16 11:09:03;;;;;;;6.15;4.03;;;;;;;;;;5075291;28;20487;-72
2022/01/16 11:11:32;;;;;;;5.65;4.22;;;;;;;;;;5073394;28;20036;-73
2022/01/16 11:14:04;;;;;;;9.73;4.30;;;;;;;;;;5092940;28;20044;-72
2022/01/16 11:16:32;;;;;;;8.00;4.27;;;;;;;;;;5092246;28;20123;-73
2022/01/16 11:19:02;;;;;;;5.70;4.05;;;;;;;;;;5091387;28;20421;-73
2022/01/16 11:21:34;;;;;;;6.20;4.47;;;;;;;;;;5092785;28;20032;-73
2022/01/16 11:24:25;;;;;;;5.43;3.97;;;;;;;;;;5092886;28;20394;-72
2022/01/16 11:26:53;;;;;;;5.15;4.10;;;;;;;;;;5091355;28;20039;-73
2022/01/16 11:29:21;;;;;;;8.18;4.40;;;;;;;;;;5092527;28;20036;-72
2022/01/16 11:31:49;;;;;;;5.80;4.03;;;;;;;;;;5092347;28;20028;-72
2022/01/16 11:34:16;;;;;;;4.80;3.90;;;;;;;;;;5092604;28;20032;-73
2022/01/16 11:36:45;;;;;;;7.55;4.40;;;;;;;;;;5092645;28;20035;-72
2022/01/16 11:39:13;;;;;;;6.35;4.90;;;;;;;;;;5089976;28;20040;-73
2022/01/16 11:41:51;;;;;;;5.72;4.18;;;;;;;;;;5092757;28;20119;-72
2022/01/16 11:44:22;;;;;;;5.35;4.30;;;;;;;;;;5090852;28;20492;-73
2022/01/16 11:46:52;;;;;;;5.65;3.80;;;;;;;;;;5092126;28;20566;-73
2022/01/16 11:49:31;;;;;;;8.32;5.60;;;;;;;;;;5092348;28;20040;-72
2022/01/16 11:52:05;;;;;;;8.10;5.72;;;;;;;;;;5072613;28;20075;-72
2022/01/16 11:54:38;;;;;;;7.47;5.35;;;;;;;;;;5073768;28;20036;-72
2022/01/16 11:57:07;;;;;;;4.32;3.50;;;;;;;;;;5092297;28;20042;-72
2022/01/16 11:59:35;;;;;;;5.25;4.28;;;;;;;;;;5090126;28;20439;-72
2022/01/16 12:02:05;;;;;;;6.45;4.57;;;;;;;;;;5091942;28;20043;-72
2022/01/16 12:04:33;;;;;;;5.05;4.20;;;;;;;;;;5092139;28;20042;-72
2022/01/16 12:07:19;;;;;;;5.80;3.97;;;;;;;;;;5084356;28;20040;-71
2022/01/16 12:09:59;;;;;;;5.35;3.67;;;;;;;;;;5074422;28;20127;-72
2022/01/16 12:12:31;;;;;;;7.47;4.35;;;;;;;;;;5074679;28;20070;-73
2022/01/16 12:15:02;;;;;;;4.20;3.42;;;;;;;;;;5092751;28;20495;-73
2022/01/16 12:17:30;;;;;;;6.85;4.88;;;;;;;;;;5092733;28;20514;-72
2022/01/16 12:20:17;;;;;;;6.57;4.32;;;;;;;;;;5074605;28;20039;-72
2022/01/16 12:22:46;;;;;;;5.40;3.40;;;;;;;;;;5090040;28;20402;-72
2022/01/16 12:25:17;;;;;;;6.90;4.18;;;;;;;;;;5092160;28;20402;-72
2022/01/16 12:27:47;;;;;;;4.57;3.58;;;;;;;;;;5092219;28;20038;-72
2022/01/16 12:30:26;;;;;;;4.55;3.22;;;;;;;;;;5081785;28;20109;-72
2022/01/16 12:32:58;;;;;;;5.82;3.15;;;;;;;;;;5078004;28;20036;-71
2022/01/16 12:35:51;;;;;;;4.65;3.25;;;;;;;;;;5090058;28;20044;-72
2022/01/16 12:38:19;;;;;;;5.05;3.42;;;;;;;;;;5072971;28;20041;-71
2022/01/16 12:40:50;;;;;;;4.90;3.40;;;;;;;;;;5072738;28;20494;-71
2022/01/16 12:43:28;;;;;;;6.45;3.50;;;;;;;;;;5081367;28;20040;-71
2022/01/16 12:45:56;;;;;;;3.97;3.00;;;;;;;;;;5071942;28;20041;-71
2022/01/16 12:48:24;;;;;;;3.10;2.40;;;;;;;;;;5072650;28;20126;-72
2022/01/16 12:50:58;;;;;;;4.38;2.67;;;;;;;;;;5072335;28;20040;-71
2022/01/16 12:53:36;;;;;;;5.03;2.42;;;;;;;;;;5072463;28;20048;-71
2022/01/16 12:56:16;;;;;;;3.63;2.60;;;;;;;;;;5064105;28;20048;-72
2022/01/16 12:58:43;;;;;;;3.92;2.33;;;;;;;;;;5054946;28;20054;-70
2022/01/16 13:01:11;;;;;;;5.78;2.70;;;;;;;;;;5073574;28;20047;-72
2022/01/16 13:03:38;;;;;;;6.50;2.60;;;;;;;;;;5075980;28;20040;-71
2022/01/16 13:06:20;;;;;;;4.78;2.80;;;;;;;;;;5075710;28;20047;-71
2022/01/16 13:08:51;;;;;;;4.70;3.53;;;;;;;;;;5075775;28;20040;-71
2022/01/16 13:11:18;;;;;;;5.68;2.90;;;;;;;;;;5075906;28;20062;-72
2022/01/16 13:13:47;;;;;;;4.93;2.80;;;;;;;;;;5073005;28;20499;-71
2022/01/16 13:16:25;;;;;;;4.47;2.42;;;;;;;;;;5091794;28;20044;-71
2022/01/16 13:18:59;;;;;;;5.07;2.65;;;;;;;;;;5094021;28;20066;-71
2022/01/16 13:21:34;;;;;;;3.25;2.67;;;;;;;;;;5076807;28;20406;-71
2022/01/16 13:24:01;;;;;;;3.45;2.20;;;;;;;;;;5093420;28;20044;-71
2022/01/16 13:26:29;;;;;;;3.58;2.35;;;;;;;;;;5095191;28;20510;-71
2022/01/16 13:29:04;;;;;;;4.30;2.33;;;;;;;;;;5091975;28;20135;-74
2022/01/16 13:31:36;;;;;;;2.70;1.90;;;;;;;;;;5093382;28;20036;-75
2022/01/16 13:34:07;;;;;;;5.63;2.30;;;;;;;;;;5084542;28;20055;-75
2022/01/16 13:36:35;;;;;;;2.58;1.95;;;;;;;;;;5075411;28;20040;-75
2022/01/16 13:39:03;;;;;;;3.17;2.20;;;;;;;;;;5092538;28;20040;-74
2022/01/16 13:41:32;;;;;;;2.85;2.13;;;;;;;;;;5093160;28;20040;-74
2022/01/16 13:44:02;;;;;;;5.00;2.13;;;;;;;;;;5094287;28;20044;-74
2022/01/16 13:46:33;;;;;;;4.53;1.90;;;;;;;;;;5076329;28;20438;-73
2022/01/16 13:49:01;;;;;;;1.55;1.42;;;;;;;;;;5094369;28;20040;-74
2022/01/16 13:51:34;;;;;;;3.13;1.88;;;;;;;;;;5094252;28;20032;-74
2022/01/16 13:54:12;;;;;;;3.63;1.85;;;;;;;;;;5074409;28;20058;-74
2022/01/16 13:56:49;;;;;;;2.80;1.80;;;;;;;;;;5091896;28;20036;-74
2022/01/16 13:59:16;;;;;;;1.50;1.40;;;;;;;;;;5094237;28;20040;-74
2022/01/16 14:01:50;;;;;;;2.50;1.50;;;;;;;;;;5076091;28;20047;-74
2022/01/16 14:04:18;;;;;;;2.25;1.80;;;;;;;;;;5091733;28;20411;-74
2022/01/16 14:06:50;;;;;;;2.95;1.80;;;;;;;;;;5093923;28;20540;-74
2022/01/16 14:09:21;;;;;;;2.25;1.92;;;;;;;;;;5072734;28;20040;-74
2022/01/16 14:11:51;;;;;;;2.92;1.75;;;;;;;;;;5093980;28;20048;-74
2022/01/16 14:14:26;;;;;;;2.72;1.90;;;;;;;;;;5072519;28;20028;-74
2022/01/16 14:22:18;;;;;;;2.13;1.83;;;;;;;;;;5090219;28;20126;-73
2022/01/16 14:24:48;;;;;;;4.50;2.30;;;;;;;;;;5093692;28;20040;-74
2022/01/16 14:27:23;;;;;;;2.70;2.10;;;;;;;;;;5074919;28;20071;-75
2022/01/16 14:29:52;;;;;;;4.10;1.88;;;;;;;;;;5091922;28;20064;-76
2022/01/16 14:32:22;;;;;;;5.00;2.10;;;;;;;;;;5073440;28;20052;-75
2022/01/16 14:34:52;;;;;;;3.45;2.13;;;;;;;;;;5073995;28;20036;-75
2022/01/16 14:37:20;;;;;;;3.13;1.80;;;;;;;;;;5070667;28;20040;-73
2022/01/16 14:39:49;;;;;;;5.22;2.00;;;;;;;;;;5081265;28;20115;-75
2022/01/16 14:42:18;;;;;;;2.35;1.88;;;;;;;;;;5093177;28;20040;-75
2022/01/16 14:44:50;;;;;;;3.92;1.95;;;;;;;;;;5075013;28;20032;-74
2022/01/16 14:47:18;;;;;;;7.83;2.30;;;;;;;;;;5093163;28;20042;-75
2022/01/16 14:49:47;;;;;;;3.33;1.80;;;;;;;;;;5092951;28;20115;-75
2022/01/16 14:52:14;;;;;;;6.07;2.13;;;;;;;;;;5092739;28;20032;-75
2022/01/16 14:54:47;;;;;;;3.33;1.85;;;;;;;;;;5092969;28;20036;-75
2022/01/16 14:57:16;;;;;;;3.40;1.98;;;;;;;;;;5092598;28;20066;-76
2022/01/16 14:59:46;;;;;;;4.38;2.08;;;;;;;;;;5075054;28;20533;-74
2022/01/16 15:02:15;;;;;;;3.60;2.30;;;;;;;;;;5093627;28;20044;-73
2022/01/16 15:04:42;;;;;;;3.10;1.98;;;;;;;;;;5093480;28;20040;-74
2022/01/16 15:07:11;;;;;;;3.67;2.25;;;;;;;;;;5075333;28;20050;-73
2022/01/16 15:09:38;;;;;;;2.95;1.90;;;;;;;;;;5093118;28;20119;-74
2022/01/16 15:12:09;;;;;;;3.00;2.22;;;;;;;;;;5093290;28;20050;-73
2022/01/16 15:14:36;;;;;;;2.83;1.95;;;;;;;;;;5093137;28;20172;-72
2022/01/16 15:17:04;;;;;;;2.60;2.10;;;;;;;;;;5074521;28;20131;-74
2022/01/16 15:19:34;;;;;;;3.22;2.13;;;;;;;;;;5093171;28;20043;-75
2022/01/16 15:24:49;;;;;;;3.35;2.28;;;;;;;;;;5074143;28;20155;-73
2022/01/16 15:27:17;;;;;;;5.18;2.10;;;;;;;;;;5092778;28;20040;-73
2022/01/16 15:29:45;;;;;;;2.92;1.98;;;;;;;;;;5074859;28;20480;-75
2022/01/16 15:32:13;;;;;;;3.78;1.92;;;;;;;;;;5092648;28;20044;-72
2022/01/16 15:34:41;;;;;;;3.90;2.15;;;;;;;;;;5093031;28;20047;-73
2022/01/16 15:37:25;;;;;;;4.03;1.92;;;;;;;;;;5092328;28;20047;-73
2022/01/16 15:39:52;;;;;;;3.42;2.33;;;;;;;;;;5091599;28;20040;-73
2022/01/16 15:42:20;;;;;;;3.95;2.10;;;;;;;;;;5074459;28;20111;-73
2022/01/16 15:44:49;;;;;;;2.95;2.03;;;;;;;;;;5081824;28;20051;-73
2022/01/16 15:47:20;;;;;;;5.32;2.50;;;;;;;;;;5087407;28;20042;-72